Dades meteomassalio
Diari Summary for Gener 1, 2018 Units:  Metric    English   Both
« Previous Day
Next Day »
Diari Semanal Mensual Anual Personalitzat
  Maxima: Minima: Mijana:
Temperatura: -17.8 °C -16.2 °C -12.1 °C
Rosada: -17.8 °C -20.2 °C -17.4 °C
Humitat: Humidity % 30 % 52 %
Velocitat del vent: 0 km/h 15.6 km/h 42.8 km/h
Racha vent: 0 km/h - -
Vent:- - NW
Pressio: 0 hPa 34774.2 hPa -
Pluja: 0 mm    
Historical Graphs
 
 
Tabular Data for Gener 1, 2018
Time Temperature Dew Point Pressure Wind Wind Speed Wind Gust Humidity Rainfall Rate (Hourly) solar Conditions
-17.8 °C -17.8 °C 0 hPa Calm     Humidity % 0 mm SolarRadiationWatts/m^2 W/m2 Conditions
00:04 -13.2 °C -15.8 °C 34818.2 hPa NNW 41.7 km/h 41.7 km/h 72 % 0 mm 0.0 W/m2 CLR
00:07 -13.2 °C -15.7 °C 34818.2 hPa NW 56.6 km/h 56.6 km/h 73 % 0 mm 0.0 W/m2 CLR
00:09 -13.2 °C -15.7 °C 34818.2 hPa NNW 62.6 km/h 62.6 km/h 73 % 0 mm 0.0 W/m2 CLR
00:14 -13.2 °C -15.7 °C 34831.8 hPa NNW 56.6 km/h 56.6 km/h 73 % 0 mm 0.0 W/m2 CLR
00:15 -13.2 °C -15.7 °C 34831.8 hPa North 56.6 km/h 56.6 km/h 73 % 0 mm 0.0 W/m2 CLR
00:19 -13.2 °C -15.7 °C 34831.8 hPa North 47.6 km/h 47.6 km/h 73 % 0 mm 0.0 W/m2 CLR
00:20 -13.2 °C -15.7 °C 34831.8 hPa NW 50.7 km/h 50.7 km/h 73 % 0 mm 0.0 W/m2 CLR
00:25 -13.2 °C -15.7 °C 34831.8 hPa NNW 59.5 km/h 59.5 km/h 73 % 0 mm 0.0 W/m2 CLR
00:26 -13.2 °C -15.7 °C 34818.2 hPa NW 59.5 km/h 59.5 km/h 73 % 0 mm 0.0 W/m2 CLR
00:31 -13.2 °C -15.7 °C 34831.8 hPa NW 44.1 km/h 44.1 km/h 73 % 0 mm 0.0 W/m2 CLR
00:35 -13.2 °C -15.7 °C 34818.2 hPa NNW 50.7 km/h 50.7 km/h 73 % 0 mm 0.0 W/m2 CLR
00:37 -13.2 °C -15.7 °C 34831.8 hPa NNW 44.1 km/h 44.1 km/h 73 % 0 mm 0.0 W/m2 CLR
00:42 -13.2 °C -15.7 °C 34818.2 hPa NW 32.8 km/h 32.8 km/h 73 % 0 mm 0.0 W/m2 CLR
00:43 -13.2 °C -15.7 °C 34818.2 hPa WNW 32.8 km/h 32.8 km/h 73 % 0 mm 0.0 W/m2 CLR
00:48 -13.4 °C -15.9 °C 34831.8 hPa NW 47.6 km/h 47.6 km/h 74 % 0 mm 0.0 W/m2 CLR
00:49 -13.4 °C -15.9 °C 34831.8 hPa NW 50.7 km/h 50.7 km/h 74 % 0 mm 0.0 W/m2 CLR
00:53 -13.4 °C -15.9 °C 34818.2 hPa NW 53.6 km/h 53.6 km/h 74 % 0 mm 0.0 W/m2 CLR
00:54 -13.4 °C -15.9 °C 34831.8 hPa NW 49.2 km/h 49.2 km/h 74 % 0 mm 0.0 W/m2 CLR
00:59 -13.4 °C -15.9 °C 34831.8 hPa NNW 50.7 km/h 50.7 km/h 74 % 0 mm 0.0 W/m2 CLR
01:00 -13.4 °C -15.9 °C 34831.8 hPa NNW 50.7 km/h 50.7 km/h 74 % 0 mm 0.0 W/m2 CLR
01:02 -13.4 °C -15.9 °C 34831.8 hPa NNW 41.7 km/h 41.7 km/h 74 % 0 mm 0.0 W/m2 CLR
01:05 -13.4 °C -15.9 °C 34831.8 hPa NW 36.2 km/h 36.2 km/h 74 % 0 mm 0.0 W/m2 CLR
01:07 -13.4 °C -15.9 °C 34831.8 hPa WNW 35.7 km/h 35.7 km/h 74 % 0 mm 0.0 W/m2 CLR
01:10 -13.4 °C -15.9 °C 34831.8 hPa NW 44.1 km/h 44.1 km/h 74 % 0 mm 0.0 W/m2 CLR
01:15 -13.4 °C -15.9 °C 34831.8 hPa NNW 50.7 km/h 50.7 km/h 74 % 0 mm 0.0 W/m2 CLR
01:16 -13.4 °C -15.9 °C 34831.8 hPa NNW 47.6 km/h 47.6 km/h 74 % 0 mm 0.0 W/m2 CLR
01:21 -13.4 °C -16 °C 34841.9 hPa NNW 56.6 km/h 56.6 km/h 73 % 0 mm 0.0 W/m2 CLR
01:23 -13.4 °C -16 °C 34831.8 hPa NNW 41.7 km/h 41.7 km/h 73 % 0 mm 0.0 W/m2 CLR
01:28 -13.2 °C -15.7 °C 34831.8 hPa NW 47.6 km/h 47.6 km/h 73 % 0 mm 0.0 W/m2 CLR
01:33 -13.2 °C -15.8 °C 34831.8 hPa NNW 50.7 km/h 50.7 km/h 72 % 0 mm 0.0 W/m2 CLR
01:38 -13.2 °C -15.7 °C 34831.8 hPa NW 47.6 km/h 47.6 km/h 73 % 0 mm 0.0 W/m2 CLR
01:43 -13.2 °C -15.7 °C 34831.8 hPa NNW 35.7 km/h 35.7 km/h 73 % 0 mm 0.0 W/m2 CLR
01:44 -13.2 °C -15.7 °C 34831.8 hPa NW 35.7 km/h 35.7 km/h 73 % 0 mm 0.0 W/m2 CLR
01:49 -13.4 °C -16 °C 34841.9 hPa North 47.6 km/h 47.6 km/h 73 % 0 mm 0.0 W/m2 CLR
01:51 -13.4 °C -16 °C 34841.9 hPa NNW 33.6 km/h 33.6 km/h 73 % 0 mm 0.0 W/m2 CLR
01:52 -13.4 °C -16 °C 34841.9 hPa NW 32.8 km/h 32.8 km/h 73 % 0 mm 0.0 W/m2 CLR
01:56 -13.4 °C -16 °C 34841.9 hPa NNW 38.8 km/h 38.8 km/h 73 % 0 mm 0.0 W/m2 CLR
01:58 -13.4 °C -16 °C 34831.8 hPa NW 29.8 km/h 29.8 km/h 73 % 0 mm 0.0 W/m2 CLR
02:01 -13.4 °C -16 °C 34841.9 hPa North 41.4 km/h 41.4 km/h 73 % 0 mm 0.0 W/m2 CLR
02:06 -13.4 °C -16 °C 34841.9 hPa North 50.7 km/h 50.7 km/h 73 % 0 mm 0.0 W/m2 CLR
02:07 -13.4 °C -16 °C 34841.9 hPa NNW 41.7 km/h 41.7 km/h 73 % 0 mm 0.0 W/m2 CLR
02:11 -13.4 °C -16 °C 34841.9 hPa NW 35.7 km/h 35.7 km/h 73 % 0 mm 0.0 W/m2 CLR
02:15 -13.4 °C -16 °C 34841.9 hPa NNW 41.4 km/h 41.4 km/h 73 % 0 mm 0.0 W/m2 CLR
02:16 -13.4 °C -16 °C 34852.1 hPa NW 41.7 km/h 41.7 km/h 73 % 0 mm 0.0 W/m2 CLR
02:20 -13.4 °C -16.2 °C 34852.1 hPa NNW 47.6 km/h 47.6 km/h 71 % 0 mm 0.0 W/m2 CLR
02:22 -13.4 °C -16.3 °C 34852.1 hPa NNW 47.6 km/h 47.6 km/h 70 % 0 mm 0.0 W/m2 CLR
02:26 -13.4 °C -16.4 °C 34852.1 hPa NW 56.6 km/h 56.6 km/h 69 % 0 mm 0.0 W/m2 CLR
02:31 -13.4 °C -16.8 °C 34852.1 hPa NW 53.6 km/h 53.6 km/h 66 % 0 mm 0.0 W/m2 CLR
02:32 -13.4 °C -16.8 °C 34852.1 hPa NNW 59.5 km/h 59.5 km/h 66 % 0 mm 0.0 W/m2 CLR
02:37 -13.4 °C -17 °C 34852.1 hPa NW 53.6 km/h 53.6 km/h 64 % 0 mm 0.0 W/m2 CLR
02:38 -13.4 °C -17 °C 34852.1 hPa North 51.8 km/h 51.8 km/h 64 % 0 mm 0.0 W/m2 CLR
02:39 -13.4 °C -17 °C 34852.1 hPa North 56.6 km/h 56.6 km/h 64 % 0 mm 0.0 W/m2 CLR
02:44 -13.4 °C -17.1 °C 34865.6 hPa NNW 50.7 km/h 50.7 km/h 63 % 0 mm 0.0 W/m2 CLR
02:45 -13.4 °C -17.1 °C 34865.6 hPa NW 56.6 km/h 56.6 km/h 63 % 0 mm 0.0 W/m2 CLR
02:50 -13.4 °C -17.3 °C 34865.6 hPa NW 65.5 km/h 65.5 km/h 62 % 0 mm 0.0 W/m2 CLR
02:51 -13.4 °C -17.3 °C 34865.6 hPa NW 56.6 km/h 56.6 km/h 62 % 0 mm 0.0 W/m2 CLR
02:56 -13.4 °C -17.4 °C 34865.6 hPa NNW 64.7 km/h 64.7 km/h 61 % 0 mm 0.0 W/m2 CLR
02:59 -13.8 °C -17.8 °C 34865.6 hPa NNW 68.6 km/h 68.6 km/h 60 % 0 mm 0.0 W/m2 CLR
03:02 -13.8 °C -17.8 °C 34865.6 hPa North 53.6 km/h 53.6 km/h 60 % 0 mm 0.0 W/m2 CLR
03:05 -13.8 °C -17.8 °C 34865.6 hPa NNW 49.2 km/h 49.2 km/h 60 % 0 mm 0.0 W/m2 CLR
03:08 -13.8 °C -17.8 °C 34865.6 hPa NW 50.7 km/h 50.7 km/h 60 % 0 mm 0.0 W/m2 CLR
03:10 -13.8 °C -17.8 °C 34865.6 hPa NNW 41.7 km/h 41.7 km/h 60 % 0 mm 0.0 W/m2 CLR
03:14 -13.8 °C -17.8 °C 34875.8 hPa NW 50.7 km/h 50.7 km/h 60 % 0 mm 0.0 W/m2 CLR
03:17 -13.8 °C -17.8 °C 34875.8 hPa NW 53.6 km/h 53.6 km/h 60 % 0 mm 0.0 W/m2 CLR
03:20 -13.8 °C -17.9 °C 34875.8 hPa NW 68.6 km/h 68.6 km/h 59 % 0 mm 0.0 W/m2 CLR
03:25 -13.8 °C -17.9 °C 34875.8 hPa NNW 56.6 km/h 56.6 km/h 59 % 0 mm 0.0 W/m2 CLR
03:26 -13.8 °C -17.9 °C 34875.8 hPa North 59.5 km/h 59.5 km/h 59 % 0 mm 0.0 W/m2 CLR
03:31 -13.8 °C -17.9 °C 34875.8 hPa NW 41.7 km/h 41.7 km/h 59 % 0 mm 0.0 W/m2 CLR
03:36 -13.8 °C -17.9 °C 34875.8 hPa NW 51.8 km/h 51.8 km/h 59 % 0 mm 0.0 W/m2 CLR
03:37 -13.8 °C -17.9 °C 34875.8 hPa NNW 50.7 km/h 50.7 km/h 59 % 0 mm 0.0 W/m2 CLR
03:42 -13.8 °C -17.9 °C 34875.8 hPa NW 50.7 km/h 50.7 km/h 59 % 0 mm 0.0 W/m2 CLR
03:46 -13.8 °C -17.9 °C 34875.8 hPa NNW 59.5 km/h 59.5 km/h 59 % 0 mm 0.0 W/m2 CLR
03:48 -13.8 °C -17.9 °C 34875.8 hPa NW 53.6 km/h 53.6 km/h 59 % 0 mm 0.0 W/m2 CLR
03:53 -13.8 °C -17.9 °C 34875.8 hPa NNW 71.5 km/h 71.5 km/h 59 % 0 mm 0.0 W/m2 CLR
03:54 -13.8 °C -17.9 °C 34875.8 hPa NW 53.6 km/h 53.6 km/h 59 % 0 mm 0.0 W/m2 CLR
03:59 -13.8 °C -17.9 °C 34875.8 hPa NNW 50.7 km/h 50.7 km/h 59 % 0 mm 0.0 W/m2 CLR
04:01 -13.8 °C -17.9 °C 34875.8 hPa NNW 62.6 km/h 62.6 km/h 59 % 0 mm 0.0 W/m2 CLR
04:05 -13.8 °C -17.9 °C 34875.8 hPa NW 53.6 km/h 53.6 km/h 59 % 0 mm 0.0 W/m2 CLR
04:10 -13.8 °C -17.9 °C 34875.8 hPa NW 50.7 km/h 50.7 km/h 59 % 0 mm 0.0 W/m2 CLR
04:14 -14.1 °C -18.2 °C 34875.8 hPa NNW 50.7 km/h 50.7 km/h 59 % 0 mm 0.0 W/m2 CLR
04:19 -14.1 °C -18.2 °C 34875.8 hPa NW 50.7 km/h 50.7 km/h 59 % 0 mm 0.0 W/m2 CLR
04:24 -14.1 °C -18.1 °C 34889.3 hPa NW 56.6 km/h 56.6 km/h 60 % 0 mm 0.0 W/m2 CLR
04:27 -14.1 °C -18.1 °C 34889.3 hPa NW 47.6 km/h 47.6 km/h 60 % 0 mm 0.0 W/m2 CLR
04:32 -13.8 °C -17.9 °C 34889.3 hPa NW 56.6 km/h 56.6 km/h 59 % 0 mm 0.0 W/m2 CLR
04:33 -13.8 °C -17.9 °C 34889.3 hPa North 50.7 km/h 50.7 km/h 59 % 0 mm 0.0 W/m2 CLR
04:38 -13.8 °C -17.8 °C 34889.3 hPa North 51.8 km/h 51.8 km/h 60 % 0 mm 0.0 W/m2 CLR
04:39 -13.8 °C -17.8 °C 34889.3 hPa NNW 62.6 km/h 62.6 km/h 60 % 0 mm 0.0 W/m2 CLR
04:44 -13.8 °C -17.8 °C 34889.3 hPa NNW 57 km/h 57 km/h 60 % 0 mm 0.0 W/m2 CLR
04:48 -13.8 °C -17.8 °C 34889.3 hPa NNW 53.6 km/h 53.6 km/h 60 % 0 mm 0.0 W/m2 CLR
04:53 -14.1 °C -18.1 °C 34889.3 hPa NNW 54.4 km/h 54.4 km/h 60 % 0 mm 0.0 W/m2 CLR
04:54 -14.1 °C -18.1 °C 34889.3 hPa NW 53.6 km/h 53.6 km/h 60 % 0 mm 0.0 W/m2 CLR
04:56 -14.1 °C -18.1 °C 34889.3 hPa WNW 62.6 km/h 62.6 km/h 60 % 0 mm 0.0 W/m2 CLR
05:00 -14.1 °C -18.1 °C 34889.3 hPa NNW 62.6 km/h 62.6 km/h 60 % 0 mm 0.0 W/m2 CLR
05:01 -14.1 °C -18.1 °C 34889.3 hPa NNW 62.6 km/h 62.6 km/h 60 % 0 mm 0.0 W/m2 CLR
05:06 -14.1 °C -18.1 °C 34875.8 hPa NW 53.6 km/h 53.6 km/h 60 % 0 mm 0.0 W/m2 CLR
05:11 -14.1 °C -18.1 °C 34889.3 hPa NNW 50.7 km/h 50.7 km/h 60 % 0 mm 0.0 W/m2 CLR
05:12 -14.1 °C -18.1 °C 34889.3 hPa NW 46.7 km/h 46.7 km/h 60 % 0 mm 0.0 W/m2 CLR
05:17 -14.1 °C -18.1 °C 34889.3 hPa NW 47.6 km/h 47.6 km/h 60 % 0 mm 0.0 W/m2 CLR
05:19 -14.1 °C -18.1 °C 34889.3 hPa NW 50.7 km/h 50.7 km/h 60 % 0 mm 0.0 W/m2 CLR
05:21 -14.1 °C -18.1 °C 34889.3 hPa NW 44.7 km/h 44.7 km/h 60 % 0 mm 0.0 W/m2 CLR
05:25 -14.1 °C -18.1 °C 34889.3 hPa West 44.7 km/h 44.7 km/h 60 % 0 mm 0.0 W/m2 CLR
05:29 -14.1 °C -18.1 °C 34899.5 hPa NW 41.7 km/h 41.7 km/h 60 % 0 mm 0.0 W/m2 CLR
05:31 -14.1 °C -18.1 °C 34899.5 hPa NW 47.6 km/h 47.6 km/h 60 % 0 mm 0.0 W/m2 CLR
05:34 -14.1 °C -18.1 °C 34899.5 hPa NW 44.7 km/h 44.7 km/h 60 % 0 mm 0.0 W/m2 CLR
05:37 -14.1 °C -18.1 °C 34899.5 hPa NW 38.8 km/h 38.8 km/h 60 % 0 mm 0.0 W/m2 CLR
05:42 -14.1 °C -18.1 °C 34899.5 hPa NW 29.8 km/h 29.8 km/h 60 % 0 mm 0.0 W/m2 CLR
05:43 -14.1 °C -18.1 °C 34899.5 hPa NW 26.9 km/h 26.9 km/h 60 % 0 mm 0.0 W/m2 CLR
05:47 -14.4 °C -18.4 °C 34909.7 hPa West 17.9 km/h 17.9 km/h 60 % 0 mm 0.0 W/m2 CLR
05:49 -14.4 °C -18.4 °C 34909.7 hPa NW 26.9 km/h 26.9 km/h 60 % 0 mm 0.0 W/m2 CLR
05:54 -14.4 °C -18.2 °C 34899.5 hPa NW 32.8 km/h 32.8 km/h 61 % 0 mm 0.0 W/m2 CLR
05:55 -14.4 °C -18.2 °C 34909.7 hPa WNW 32.8 km/h 32.8 km/h 61 % 0 mm 0.0 W/m2 CLR
05:57 -14.4 °C -18.2 °C 34909.7 hPa WNW 26.9 km/h 26.9 km/h 61 % 0 mm 0.0 W/m2 CLR
06:01 -14.4 °C -18.2 °C 34909.7 hPa NW 29.8 km/h 29.8 km/h 61 % 0 mm 0.0 W/m2 CLR
06:06 -14.4 °C -18.4 °C 34909.7 hPa WNW 36.2 km/h 36.2 km/h 60 % 0 mm 0.0 W/m2 CLR
06:09 -14.4 °C -18.4 °C 34923.2 hPa WNW 31.1 km/h 31.1 km/h 60 % 0 mm 0.0 W/m2 CLR
06:14 -14.4 °C -18.4 °C 34923.2 hPa NW 35.7 km/h 35.7 km/h 60 % 0 mm 0.0 W/m2 CLR
06:16 -14.4 °C -18.4 °C 34923.2 hPa NW 35.7 km/h 35.7 km/h 60 % 0 mm 0.0 W/m2 CLR
06:19 -14.4 °C -18.4 °C 34923.2 hPa NNW 38.8 km/h 38.8 km/h 60 % 0 mm 0.0 W/m2 CLR
06:21 -14.4 °C -18.4 °C 34923.2 hPa NW 38.8 km/h 38.8 km/h 60 % 0 mm 0.0 W/m2 CLR
06:26 -14.4 °C -18.4 °C 34923.2 hPa NW 35.7 km/h 35.7 km/h 60 % 0 mm 0.0 W/m2 CLR
06:27 -14.4 °C -18.4 °C 34923.2 hPa NW 32.8 km/h 32.8 km/h 60 % 0 mm 0.0 W/m2 CLR
06:32 -14.4 °C -18.5 °C 34923.2 hPa NW 32.8 km/h 32.8 km/h 59 % 0 mm 0.0 W/m2 CLR
06:33 -14.4 °C -18.5 °C 34933.4 hPa NNW 29.8 km/h 29.8 km/h 59 % 0 mm 0.0 W/m2 CLR
06:38 -14.7 °C -18.8 °C 34933.4 hPa NW 29.8 km/h 29.8 km/h 59 % 0 mm 0.0 W/m2 CLR
06:41 -14.7 °C -18.8 °C 34933.4 hPa NW 29.8 km/h 29.8 km/h 59 % 0 mm 0.0 W/m2 CLR
06:44 -14.7 °C -18.7 °C 34933.4 hPa NW 26.9 km/h 26.9 km/h 60 % 0 mm 0.0 W/m2 CLR
06:49 -14.7 °C -18.7 °C 34946.9 hPa NW 23.8 km/h 23.8 km/h 60 % 0 mm 0.0 W/m2 CLR
06:50 -14.7 °C -18.7 °C 34933.4 hPa NNW 23.8 km/h 23.8 km/h 60 % 0 mm 0.0 W/m2 CLR
06:53 -14.7 °C -18.7 °C 34933.4 hPa NNW 32.8 km/h 32.8 km/h 60 % 0 mm 0.0 W/m2 CLR
06:55 -14.7 °C -18.7 °C 34933.4 hPa NW 29.8 km/h 29.8 km/h 60 % 0 mm 0.0 W/m2 CLR
07:00 -14.7 °C -18.8 °C 34933.4 hPa NW 28.5 km/h 28.5 km/h 59 % 0 mm 0.0 W/m2 CLR
07:01 -14.7 °C -18.8 °C 34933.4 hPa WNW 29.8 km/h 29.8 km/h 59 % 0 mm 0.0 W/m2 CLR
07:06 -14.4 °C -18.5 °C 34933.4 hPa NW 29.8 km/h 29.8 km/h 59 % 0 mm 0.0 W/m2 CLR
07:07 -14.4 °C -18.5 °C 34933.4 hPa NW 29.8 km/h 29.8 km/h 59 % 0 mm 0.0 W/m2 CLR
07:09 -14.4 °C -18.5 °C 34933.4 hPa WNW 26.9 km/h 26.9 km/h 59 % 0 mm 0.0 W/m2 CLR
07:13 -14.7 °C -18.8 °C 34933.4 hPa NW 29.8 km/h 29.8 km/h 59 % 0 mm 0.0 W/m2 CLR
07:14 -14.7 °C -18.8 °C 34933.4 hPa WNW 26.9 km/h 26.9 km/h 59 % 0 mm 0.0 W/m2 CLR
07:18 -14.7 °C -18.7 °C 34933.4 hPa NW 29.8 km/h 29.8 km/h 60 % 0 mm 0.0 W/m2 CLR
07:23 -14.7 °C -18.7 °C 34933.4 hPa WNW 29.8 km/h 29.8 km/h 60 % 0 mm 0.0 W/m2 CLR
07:24 -15 °C -19.1 °C 34946.9 hPa WNW 23.8 km/h 23.8 km/h 59 % 0 mm 0.0 W/m2 CLR
07:29 -14.7 °C -18.7 °C 34946.9 hPa West 17.9 km/h 17.9 km/h 60 % 0 mm 0.0 W/m2 CLR
07:34 -14.7 °C -18.6 °C 34946.9 hPa West 29.8 km/h 29.8 km/h 61 % 0 mm 0.0 W/m2 CLR
07:36 -14.7 °C -18.6 °C 34946.9 hPa West 33.6 km/h 33.6 km/h 61 % 0 mm 0.0 W/m2 CLR
07:41 -14.7 °C -18.4 °C 34957.1 hPa West 32.8 km/h 32.8 km/h 62 % 0 mm 0.0 W/m2 CLR
07:43 -14.7 °C -18.4 °C 34957.1 hPa WNW 32.8 km/h 32.8 km/h 62 % 0 mm 0.0 W/m2 CLR
07:48 -15 °C -18.6 °C 34967.2 hPa West 26.9 km/h 26.9 km/h 63 % 0 mm 0.0 W/m2 CLR
07:49 -15 °C -18.6 °C 34967.2 hPa WNW 23.8 km/h 23.8 km/h 63 % 0 mm 0.0 W/m2 CLR
07:54 -15 °C -18.6 °C 34967.2 hPa NW 23.8 km/h 23.8 km/h 63 % 0 mm 0.0 W/m2 CLR
07:55 -15 °C -18.6 °C 34967.2 hPa WNW 29.8 km/h 29.8 km/h 63 % 0 mm 0.0 W/m2 CLR
07:59 -15 °C -18.5 °C 34967.2 hPa WNW 29.8 km/h 29.8 km/h 64 % 0 mm 0.0 W/m2 CLR
08:04 -15.6 °C -19.2 °C 34967.2 hPa NW 29.8 km/h 29.8 km/h 63 % 0 mm 0.0 W/m2 CLR
08:06 -15.9 °C -19.6 °C 34967.2 hPa WNW 32.8 km/h 32.8 km/h 62 % 0 mm 0.0 W/m2 CLR
08:10 -15.9 °C -19.7 °C 34967.2 hPa WNW 29.8 km/h 29.8 km/h 61 % 0 mm 0.0 W/m2 CLR
08:15 -15.9 °C -19.7 °C 34967.2 hPa WNW 29.8 km/h 29.8 km/h 61 % 0 mm 0.0 W/m2 OVC
08:16 -15.9 °C -19.7 °C 34967.2 hPa WNW 29.8 km/h 29.8 km/h 61 % 0 mm 0.0 W/m2 OVC
08:21 -16.2 °C -20.1 °C 34967.2 hPa NW 38.8 km/h 38.8 km/h 60 % 0 mm 0.0 W/m2 OVC
08:22 -16.2 °C -20.1 °C 34967.2 hPa WNW 35.7 km/h 35.7 km/h 60 % 0 mm 0.0 W/m2 OVC
08:24 -16.2 °C -20.2 °C 34967.2 hPa WNW 38.8 km/h 38.8 km/h 59 % 0 mm 5.0 W/m2 OVC
08:27 -15.9 °C -19.9 °C 34967.2 hPa WNW 38.8 km/h 38.8 km/h 59 % 0 mm 7.0 W/m2 OVC
08:32 -15.9 °C -20.1 °C 34967.2 hPa NW 38.8 km/h 38.8 km/h 58 % 0 mm 9.0 W/m2 BKN
08:37 -15.3 °C -19.6 °C 34980.8 hPa NW 35.7 km/h 35.7 km/h 57 % 0 mm 11.0 W/m2 BKN
08:38 -15.3 °C -19.6 °C 34967.2 hPa NW 38.8 km/h 38.8 km/h 57 % 0 mm 12.0 W/m2 BKN
08:42 -15 °C -19.5 °C 34980.8 hPa WNW 36.2 km/h 36.2 km/h 56 % 0 mm 14.0 W/m2 BKN
08:44 -15 °C -19.5 °C 34980.8 hPa NW 50.7 km/h 50.7 km/h 56 % 0 mm 14.0 W/m2 BKN
08:48 -14.7 °C -19.2 °C 34980.8 hPa NW 38.8 km/h 38.8 km/h 56 % 0 mm 16.0 W/m2 BKN
08:49 -14.7 °C -19.2 °C 34980.8 hPa NW 32.8 km/h 32.8 km/h 56 % 0 mm 18.0 W/m2 BKN
08:54 -14.4 °C -18.9 °C 34980.8 hPa WNW 35.7 km/h 35.7 km/h 56 % 0 mm 21.0 W/m2 BKN
08:59 -14.4 °C -18.9 °C 34980.8 hPa WNW 28.5 km/h 28.5 km/h 56 % 0 mm 26.0 W/m2 BKN
09:01 -14.4 °C -18.9 °C 34980.8 hPa WNW 29.8 km/h 29.8 km/h 56 % 0 mm 30.0 W/m2 BKN
09:05 -14.4 °C -18.9 °C 34980.8 hPa NW 31.1 km/h 31.1 km/h 56 % 0 mm 30.0 W/m2 BKN
09:09 -14.4 °C -19.1 °C 34980.8 hPa NW 29.8 km/h 29.8 km/h 55 % 0 mm 40.0 W/m2 BKN
09:13 -14.4 °C -19.1 °C 34967.2 hPa NW 32.8 km/h 32.8 km/h 55 % 0 mm 47.0 W/m2 SCT
09:18 -14.4 °C -19.1 °C 34980.8 hPa WNW 23.8 km/h 23.8 km/h 55 % 0 mm 54.0 W/m2 SCT
09:23 -14.4 °C -19.1 °C 34980.8 hPa NW 15.6 km/h 15.6 km/h 55 % 0 mm 65.0 W/m2 SCT
09:24 -14.4 °C -19.1 °C 34980.8 hPa NNW 17.9 km/h 17.9 km/h 55 % 0 mm 72.0 W/m2 SCT
09:26 -14.4 °C -19.1 °C 34980.8 hPa NW 17.9 km/h 17.9 km/h 55 % 0 mm 54.0 W/m2 SCT
09:31 -14.7 °C -19.3 °C 34980.8 hPa WNW 23.8 km/h 23.8 km/h 55 % 0 mm 53.0 W/m2 SCT
09:33 -14.7 °C -19.3 °C 34980.8 hPa NW 23.8 km/h 23.8 km/h 55 % 0 mm 56.0 W/m2 SCT
09:38 -15 °C -19.6 °C 34980.8 hPa NW 23.8 km/h 23.8 km/h 55 % 0 mm 93.0 W/m2 FEW
09:39 -15 °C -19.6 °C 34980.8 hPa WNW 23.8 km/h 23.8 km/h 55 % 0 mm 93.0 W/m2 FEW
09:41 -15 °C -19.6 °C 34980.8 hPa WNW 28.5 km/h 28.5 km/h 55 % 0 mm 111.0 W/m2 FEW
09:44 -15 °C -19.6 °C 34967.2 hPa NW 29.8 km/h 29.8 km/h 55 % 0 mm 84.0 W/m2 CLR
09:47 -15 °C -19.6 °C 34967.2 hPa WNW 26.9 km/h 26.9 km/h 55 % 0 mm 139.0 W/m2 CLR
09:52 -15 °C -19.8 °C 34980.8 hPa WNW 29.8 km/h 29.8 km/h 54 % 0 mm 153.0 W/m2 CLR
09:57 -14.7 °C -19.5 °C 34980.8 hPa NW 29.8 km/h 29.8 km/h 54 % 0 mm 171.0 W/m2 CLR
09:58 -14.7 °C -19.5 °C 34980.8 hPa WNW 29.8 km/h 29.8 km/h 54 % 0 mm 171.0 W/m2 CLR
10:00 -14.1 °C -19 °C 34980.8 hPa NW 29.8 km/h 29.8 km/h 53 % 0 mm 174.0 W/m2 CLR
10:01 -14.1 °C -18.9 °C 34980.8 hPa NW 36.2 km/h 36.2 km/h 54 % 0 mm 178.0 W/m2 CLR
10:06 -13.4 °C -18.4 °C 34980.8 hPa WNW 29.8 km/h 29.8 km/h 53 % 0 mm 181.0 W/m2 CLR
10:10 -13.2 °C -18.2 °C 34980.8 hPa WNW 35.7 km/h 35.7 km/h 53 % 0 mm 118.0 W/m2 CLR
10:12 -13.2 °C -18.3 °C 34980.8 hPa NW 38.8 km/h 38.8 km/h 52 % 0 mm 153.0 W/m2 CLR
10:17 -13.2 °C -18.3 °C 34980.8 hPa NW 35.7 km/h 35.7 km/h 52 % 0 mm 128.0 W/m2 CLR
10:19 -12.8 °C -18 °C 34980.8 hPa NW 29.8 km/h 29.8 km/h 52 % 0 mm 155.0 W/m2 CLR
10:20 -12.8 °C -18 °C 34980.8 hPa WNW 29.8 km/h 29.8 km/h 52 % 0 mm 176.0 W/m2 CLR
10:25 -12.8 °C -18.2 °C 34980.8 hPa NW 32.8 km/h 32.8 km/h 51 % 0 mm 244.0 W/m2 CLR
10:26 -12.8 °C -18.2 °C 34980.8 hPa NW 32.8 km/h 32.8 km/h 51 % 0 mm 248.0 W/m2 CLR
10:28 -12.8 °C -18.2 °C 34967.2 hPa WNW 41.7 km/h 41.7 km/h 51 % 0 mm 253.0 W/m2 CLR
10:32 -12.8 °C -18.3 °C 34980.8 hPa NW 29.8 km/h 29.8 km/h 50 % 0 mm 262.0 W/m2 CLR
10:33 -12.8 °C -18.3 °C 34980.8 hPa WNW 35.7 km/h 35.7 km/h 50 % 0 mm 267.0 W/m2 CLR
10:38 -12.6 °C -18.2 °C 34980.8 hPa WNW 38.8 km/h 38.8 km/h 49 % 0 mm 276.0 W/m2 CLR
10:41 -12.6 °C -18.2 °C 34980.8 hPa NW 41.7 km/h 41.7 km/h 49 % 0 mm 279.0 W/m2 CLR
10:46 -12.2 °C -18.1 °C 34980.8 hPa WNW 29.8 km/h 29.8 km/h 48 % 0 mm 290.0 W/m2 CLR
10:47 -12.2 °C -18.1 °C 34980.8 hPa NW 29.8 km/h 29.8 km/h 48 % 0 mm 292.0 W/m2 CLR
10:50 -12.2 °C -18.1 °C 34980.8 hPa NW 38.8 km/h 38.8 km/h 48 % 0 mm 299.0 W/m2 CLR
10:53 -12.2 °C -18.2 °C 34980.8 hPa WNW 35.7 km/h 35.7 km/h 47 % 0 mm 306.0 W/m2 CLR
10:58 -11.9 °C -17.8 °C 34967.2 hPa NW 29.8 km/h 29.8 km/h 48 % 0 mm 315.0 W/m2 CLR
10:59 -11.9 °C -17.8 °C 34967.2 hPa NW 29.8 km/h 29.8 km/h 48 % 0 mm 316.0 W/m2 CLR
11:04 -11.9 °C -18.1 °C 34967.2 hPa WNW 47.6 km/h 47.6 km/h 46 % 0 mm 325.0 W/m2 CLR
11:09 -11.9 °C -18.1 °C 34957.1 hPa West 32.8 km/h 32.8 km/h 46 % 0 mm 338.0 W/m2 CLR
11:10 -11.9 °C -18.1 °C 34957.1 hPa WNW 32.8 km/h 32.8 km/h 46 % 0 mm 339.0 W/m2 CLR
11:15 -11.9 °C -18.3 °C 34957.1 hPa NW 29.8 km/h 29.8 km/h 45 % 0 mm 346.0 W/m2 CLR
11:16 -11.9 °C -18.3 °C 34957.1 hPa NW 23.8 km/h 23.8 km/h 45 % 0 mm 348.0 W/m2 CLR
11:21 -11.9 °C -18.3 °C 34957.1 hPa WNW 32.8 km/h 32.8 km/h 45 % 0 mm 355.0 W/m2 CLR
11:22 -11.9 °C -18.4 °C 34957.1 hPa WNW 29.8 km/h 29.8 km/h 44 % 0 mm 357.0 W/m2 CLR
11:23 -11.9 °C -18.3 °C 34957.1 hPa WNW 23.8 km/h 23.8 km/h 45 % 0 mm 359.0 W/m2 CLR
11:28 -11.6 °C -18 °C 34946.9 hPa West 26.9 km/h 26.9 km/h 45 % 0 mm 366.0 W/m2 CLR
11:29 -11.6 °C -18 °C 34946.9 hPa WNW 26.9 km/h 26.9 km/h 45 % 0 mm 366.0 W/m2 CLR
11:34 -11.6 °C -18.3 °C 34946.9 hPa NW 32.8 km/h 32.8 km/h 43 % 0 mm 374.0 W/m2 CLR
11:37 -11.6 °C -18.3 °C 34946.9 hPa NNW 31.1 km/h 31.1 km/h 43 % 0 mm 378.0 W/m2 CLR
11:40 -11.6 °C -18.3 °C 34933.4 hPa NW 23.8 km/h 23.8 km/h 43 % 0 mm 381.0 W/m2 CLR
11:43 -11.6 °C -18.5 °C 34933.4 hPa West 38.8 km/h 38.8 km/h 42 % 0 mm 385.0 W/m2 CLR
11:48 -11.3 °C -18.2 °C 34923.2 hPa WNW 20.9 km/h 20.9 km/h 42 % 0 mm 390.0 W/m2 CLR
11:49 -11.3 °C -18.4 °C 34923.2 hPa WNW 26.9 km/h 26.9 km/h 41 % 0 mm 392.0 W/m2 CLR
11:50 -11.3 °C -18.4 °C 34923.2 hPa NW 29.8 km/h 29.8 km/h 41 % 0 mm 394.0 W/m2 CLR
11:55 -11.3 °C -18.6 °C 34923.2 hPa WNW 38.8 km/h 38.8 km/h 40 % 0 mm 399.0 W/m2 CLR
11:56 -11.3 °C -18.6 °C 34923.2 hPa NNW 38.8 km/h 38.8 km/h 40 % 0 mm 399.0 W/m2 CLR
12:01 -11 °C -18.7 °C 34923.2 hPa WNW 47.6 km/h 47.6 km/h 38 % 0 mm 404.0 W/m2 CLR
12:06 -11 °C -18.7 °C 34909.7 hPa WNW 32.8 km/h 32.8 km/h 38 % 0 mm 408.0 W/m2 CLR
12:07 -11 °C -18.5 °C 34909.7 hPa NNW 38.8 km/h 38.8 km/h 39 % 0 mm 411.0 W/m2 CLR
12:12 -10.7 °C -18.4 °C 34909.7 hPa NW 32.8 km/h 32.8 km/h 38 % 0 mm 413.0 W/m2 CLR
12:17 -10.7 °C -18.2 °C 34909.7 hPa NNW 29.8 km/h 29.8 km/h 39 % 0 mm 417.0 W/m2 CLR
12:21 -10.7 °C -18.4 °C 34909.7 hPa NNW 32.8 km/h 32.8 km/h 38 % 0 mm 418.0 W/m2 CLR
12:26 -10.7 °C -18.4 °C 34899.5 hPa WNW 31.1 km/h 31.1 km/h 38 % 0 mm 422.0 W/m2 CLR
12:30 -10.7 °C -18.7 °C 34899.5 hPa NW 32.8 km/h 32.8 km/h 37 % 0 mm 424.0 W/m2 CLR
12:31 -10.7 °C -18.7 °C 34899.5 hPa WNW 26.9 km/h 26.9 km/h 37 % 0 mm 424.0 W/m2 CLR
12:36 -10.7 °C -18.4 °C 34889.3 hPa North 25.9 km/h 25.9 km/h 38 % 0 mm 427.0 W/m2 CLR
12:37 -10.7 °C -18.2 °C 34889.3 hPa NW 26.9 km/h 26.9 km/h 39 % 0 mm 427.0 W/m2 CLR
12:42 -10.7 °C -18.7 °C 34875.8 hPa NW 29.8 km/h 29.8 km/h 37 % 0 mm 429.0 W/m2 CLR
12:43 -10.7 °C -18.7 °C 34875.8 hPa NNW 26.9 km/h 26.9 km/h 37 % 0 mm 429.0 W/m2 CLR
12:48 -10.4 °C -18.6 °C 34875.8 hPa North 26.9 km/h 26.9 km/h 36 % 0 mm 431.0 W/m2 CLR
12:53 -10.4 °C -18.6 °C 34875.8 hPa NW 44.7 km/h 44.7 km/h 36 % 0 mm 431.0 W/m2 CLR
12:57 -10.4 °C -18.6 °C 34875.8 hPa NNW 35.7 km/h 35.7 km/h 36 % 0 mm 432.0 W/m2 CLR
13:02 -10.4 °C -18.6 °C 34875.8 hPa NW 32.8 km/h 32.8 km/h 36 % 0 mm 432.0 W/m2 CLR
13:05 -10.1 °C -18.3 °C 34875.8 hPa NNW 35.7 km/h 35.7 km/h 36 % 0 mm 432.0 W/m2 CLR
13:08 -10.1 °C -18.3 °C 34865.6 hPa North 38.8 km/h 38.8 km/h 36 % 0 mm 431.0 W/m2 CLR
13:10 -10.1 °C -18.3 °C 34865.6 hPa NNW 29.8 km/h 29.8 km/h 36 % 0 mm 432.0 W/m2 CLR
13:15 -10.1 °C -18.5 °C 34865.6 hPa North 44.7 km/h 44.7 km/h 35 % 0 mm 432.0 W/m2 CLR
13:16 -10.1 °C -18.5 °C 34865.6 hPa North 44.7 km/h 44.7 km/h 35 % 0 mm 432.0 W/m2 CLR
13:21 -10.1 °C -18.5 °C 34865.6 hPa North 32.8 km/h 32.8 km/h 35 % 0 mm 431.0 W/m2 CLR
13:25 -10.1 °C -18.5 °C 34865.6 hPa NNE 47.6 km/h 47.6 km/h 35 % 0 mm 431.0 W/m2 CLR
13:26 -10.1 °C -18.5 °C 34865.6 hPa North 35.7 km/h 35.7 km/h 35 % 0 mm 431.0 W/m2 CLR
13:30 -10.1 °C -18.3 °C 34865.6 hPa NW 38.8 km/h 38.8 km/h 36 % 0 mm 432.0 W/m2 CLR
13:35 -10.1 °C -18.3 °C 34852.1 hPa NNW 47.6 km/h 47.6 km/h 36 % 0 mm 459.0 W/m2 CLR
13:36 -10.1 °C -18.3 °C 34852.1 hPa NW 47.6 km/h 47.6 km/h 36 % 0 mm 473.0 W/m2 CLR
13:41 -10.1 °C -18.1 °C 34852.1 hPa NNW 29.8 km/h 29.8 km/h 37 % 0 mm 374.0 W/m2 CLR
13:44 -10.4 °C -18.6 °C 34852.1 hPa North 47.6 km/h 47.6 km/h 36 % 0 mm 427.0 W/m2 CLR
13:47 -10.1 °C -18.3 °C 34852.1 hPa NNW 32.8 km/h 32.8 km/h 36 % 0 mm 431.0 W/m2 CLR
13:52 -10.1 °C -18.3 °C 34841.9 hPa NW 44.7 km/h 44.7 km/h 36 % 0 mm 418.0 W/m2 CLR
13:55 -9.8 °C -17.8 °C 34841.9 hPa North 29.8 km/h 29.8 km/h 37 % 0 mm 413.0 W/m2 CLR
13:57 -9.8 °C -18 °C 34841.9 hPa NNE 38.8 km/h 38.8 km/h 36 % 0 mm 410.0 W/m2 CLR
14:02 -9.8 °C -18 °C 34831.8 hPa North 50.7 km/h 50.7 km/h 36 % 0 mm 404.0 W/m2 CLR
14:04 -9.8 °C -18.2 °C 34831.8 hPa NNW 35.7 km/h 35.7 km/h 35 % 0 mm 404.0 W/m2 CLR
14:05 -9.8 °C -18.2 °C 34831.8 hPa NW 38.8 km/h 38.8 km/h 35 % 0 mm 404.0 W/m2 CLR
14:10 -9.8 °C -18 °C 34831.8 hPa NNW 35.7 km/h 35.7 km/h 36 % 0 mm 401.0 W/m2 CLR
14:11 -9.8 °C -18 °C 34831.8 hPa NNW 29.8 km/h 29.8 km/h 36 % 0 mm 399.0 W/m2 CLR
14:16 -9.8 °C -18 °C 34818.2 hPa North 38.8 km/h 38.8 km/h 36 % 0 mm 396.0 W/m2 CLR
14:21 -9.8 °C -18 °C 34818.2 hPa North 44.7 km/h 44.7 km/h 36 % 0 mm 390.0 W/m2 CLR
14:22 -9.8 °C -18 °C 34831.8 hPa NNW 44.7 km/h 44.7 km/h 36 % 0 mm 390.0 W/m2 CLR
14:27 -9.8 °C -18 °C 34818.2 hPa NW 31.1 km/h 31.1 km/h 36 % 0 mm 394.0 W/m2 CLR
14:29 -9.8 °C -18.2 °C 34831.8 hPa North 31.1 km/h 31.1 km/h 35 % 0 mm 392.0 W/m2 CLR
14:33 -9.8 °C -18.2 °C 34831.8 hPa NW 35.7 km/h 35.7 km/h 35 % 0 mm 380.0 W/m2 CLR
14:34 -9.4 °C -17.9 °C 34831.8 hPa NNW 44.1 km/h 44.1 km/h 35 % 0 mm 376.0 W/m2 CLR
14:35 -9.4 °C -17.9 °C 34831.8 hPa NNW 44.7 km/h 44.7 km/h 35 % 0 mm 376.0 W/m2 CLR
14:40 -9.4 °C -18.2 °C 34818.2 hPa North 38.8 km/h 38.8 km/h 34 % 0 mm 367.0 W/m2 CLR
14:43 -9.4 °C -18.4 °C 34818.2 hPa NNW 50.7 km/h 50.7 km/h 33 % 0 mm 373.0 W/m2 CLR
14:48 -9.1 °C -18.7 °C 34808.1 hPa NNW 54.4 km/h 54.4 km/h 31 % 0 mm 385.0 W/m2 CLR
14:53 -9.1 °C -18.9 °C 34808.1 hPa NNE 56.6 km/h 56.6 km/h 30 % 0 mm 388.0 W/m2 CLR
14:55 -9.1 °C -18.9 °C 34808.1 hPa NNW 74.5 km/h 74.5 km/h 30 % 0 mm 399.0 W/m2 CLR
15:00 -9.1 °C -18.9 °C 34808.1 hPa North 68.6 km/h 68.6 km/h 30 % 0 mm 218.0 W/m2 CLR
15:01 -9.1 °C -18.9 °C 34808.1 hPa North 69.8 km/h 69.8 km/h 30 % 0 mm 188.0 W/m2 CLR
15:02 -9.4 °C -19.1 °C 34808.1 hPa NNW 68.6 km/h 68.6 km/h 30 % 0 mm 255.0 W/m2 CLR
15:07 -9.4 °C -18.9 °C 34808.1 hPa NNE 47.6 km/h 47.6 km/h 31 % 0 mm 250.0 W/m2 CLR
15:08 -9.4 °C -18.9 °C 34808.1 hPa NNE 41.7 km/h 41.7 km/h 31 % 0 mm 223.0 W/m2 CLR
15:12 -9.4 °C -18.9 °C 34818.2 hPa North 41.4 km/h 41.4 km/h 31 % 0 mm 243.0 W/m2 CLR
15:13 -9.4 °C -18.9 °C 34808.1 hPa NNE 50.7 km/h 50.7 km/h 31 % 0 mm 258.0 W/m2 CLR
15:18 -9.4 °C -19.1 °C 34808.1 hPa NNW 53.6 km/h 53.6 km/h 30 % 0 mm 163.0 W/m2 CLR
15:19 -9.4 °C -19.1 °C 34808.1 hPa NNW 57 km/h 57 km/h 30 % 0 mm 162.0 W/m2 CLR
15:24 -9.4 °C -19.1 °C 34797.9 hPa NW 71.5 km/h 71.5 km/h 30 % 0 mm 174.0 W/m2 CLR
15:29 -9.4 °C -19.1 °C 34797.9 hPa NNW 68.6 km/h 68.6 km/h 30 % 0 mm 197.0 W/m2 CLR
15:34 -9.4 °C -19.1 °C 34797.9 hPa NW 62.6 km/h 62.6 km/h 30 % 0 mm 218.0 W/m2 CLR
15:35 -9.4 °C -19.1 °C 34797.9 hPa NW 62.6 km/h 62.6 km/h 30 % 0 mm 188.0 W/m2 CLR
15:40 -9.4 °C -19.1 °C 34784.4 hPa NNW 57 km/h 57 km/h 30 % 0 mm 111.0 W/m2 CLR
15:42 -9.4 °C -19.1 °C 34797.9 hPa NW 68.6 km/h 68.6 km/h 30 % 0 mm 265.0 W/m2 CLR
15:45 -9.4 °C -18.9 °C 34797.9 hPa NW 47.6 km/h 47.6 km/h 31 % 0 mm 258.0 W/m2 CLR
15:47 -9.4 °C -18.9 °C 34808.1 hPa NNW 35.7 km/h 35.7 km/h 31 % 0 mm 172.0 W/m2 CLR
15:50 -9.4 °C -18.9 °C 34808.1 hPa NNW 41.7 km/h 41.7 km/h 31 % 0 mm 246.0 W/m2 CLR
15:54 -9.4 °C -18.9 °C 34808.1 hPa NW 47.6 km/h 47.6 km/h 31 % 0 mm 234.0 W/m2 CLR
15:59 -9.4 °C -18.7 °C 34808.1 hPa NNW 33.6 km/h 33.6 km/h 32 % 0 mm 234.0 W/m2 CLR
16:03 -9.4 °C -18.4 °C 34797.9 hPa NNW 68.6 km/h 68.6 km/h 33 % 0 mm 209.0 W/m2 CLR
16:05 -9.4 °C -18.4 °C 34797.9 hPa NW 50.7 km/h 50.7 km/h 33 % 0 mm 195.0 W/m2 CLR
16:10 -9.4 °C -18.2 °C 34797.9 hPa NW 51.8 km/h 51.8 km/h 34 % 0 mm 146.0 W/m2 CLR
16:11 -9.4 °C -17.9 °C 34797.9 hPa NNW 50.7 km/h 50.7 km/h 35 % 0 mm 123.0 W/m2 CLR
16:12 -9.4 °C -17.9 °C 34797.9 hPa North 53.6 km/h 53.6 km/h 35 % 0 mm 121.0 W/m2 CLR
16:17 -9.8 °C -18 °C 34797.9 hPa NW 53.6 km/h 53.6 km/h 36 % 0 mm 79.0 W/m2 CLR
16:18 -9.8 °C -18 °C 34797.9 hPa NW 53.6 km/h 53.6 km/h 36 % 0 mm 88.0 W/m2 CLR
16:23 -9.8 °C -17.6 °C 34808.1 hPa NNW 71.5 km/h 71.5 km/h 38 % 0 mm 120.0 W/m2 CLR
16:24 -9.8 °C -17.6 °C 34808.1 hPa NNE 50.7 km/h 50.7 km/h 38 % 0 mm 120.0 W/m2 CLR
16:29 -9.8 °C -17.4 °C 34808.1 hPa NNW 69.8 km/h 69.8 km/h 39 % 0 mm 40.0 W/m2 CLR
16:35 -9.8 °C -17.2 °C 34808.1 hPa NW 53.6 km/h 53.6 km/h 40 % 0 mm 88.0 W/m2 SCT
16:37 -9.8 °C -17.2 °C 34808.1 hPa NNW 71.5 km/h 71.5 km/h 40 % 0 mm 84.0 W/m2 SCT
16:42 -9.8 °C -17.2 °C 34797.9 hPa NNW 57 km/h 57 km/h 40 % 0 mm 69.0 W/m2 FEW
16:47 -9.8 °C -17.2 °C 34808.1 hPa NW 53.6 km/h 53.6 km/h 40 % 0 mm 69.0 W/m2 SCT
16:48 -9.8 °C -17.1 °C 34808.1 hPa NW 53.6 km/h 53.6 km/h 41 % 0 mm 79.0 W/m2 FEW
16:53 -9.8 °C -17.1 °C 34808.1 hPa NW 44.7 km/h 44.7 km/h 41 % 0 mm 62.0 W/m2 FEW
16:54 -9.8 °C -17.1 °C 34808.1 hPa NW 50.7 km/h 50.7 km/h 41 % 0 mm 40.0 W/m2 BKN
16:58 -9.8 °C -17.1 °C 34808.1 hPa WNW 44.1 km/h 44.1 km/h 41 % 0 mm 60.0 W/m2 SCT
17:00 -9.8 °C -16.8 °C 34818.2 hPa NW 50.7 km/h 50.7 km/h 42 % 0 mm 65.0 W/m2 SCT
17:04 -10.1 °C -17.1 °C 34808.1 hPa NNW 50.7 km/h 50.7 km/h 42 % 0 mm 60.0 W/m2 SCT
17:09 -10.1 °C -17.1 °C 34797.9 hPa NW 62.6 km/h 62.6 km/h 42 % 0 mm 19.0 W/m2 BKN
17:14 -10.1 °C -17.1 °C 34797.9 hPa WNW 41.7 km/h 48.4 km/h 42 % 0 mm 30.0 W/m2 BKN
17:16 -10.1 °C -17.1 °C 34797.9 hPa NW 38.8 km/h 38.8 km/h 42 % 0 mm 33.0 W/m2 BKN
17:21 -10.1 °C -17.3 °C 34784.4 hPa NW 50.7 km/h 50.7 km/h 41 % 0 mm 32.0 W/m2 BKN
17:22 -10.1 °C -17.3 °C 34784.4 hPa NW 38.8 km/h 38.8 km/h 41 % 0 mm 30.0 W/m2 BKN
17:27 -10.1 °C -17.5 °C 34784.4 hPa WNW 47.6 km/h 47.6 km/h 40 % 0 mm 14.0 W/m2 BKN
17:28 -10.1 °C -17.5 °C 34774.2 hPa WNW 54.4 km/h 54.4 km/h 40 % 0 mm 11.0 W/m2 BKN
17:33 -10.4 °C -17.6 °C 34774.2 hPa NW 56.6 km/h 56.6 km/h 41 % 0 mm 7.0 W/m2 BKN
17:35 -10.4 °C -17.6 °C 34774.2 hPa WNW 47.6 km/h 47.6 km/h 41 % 0 mm 5.0 W/m2 BKN
17:38 -10.4 °C -17.6 °C 34774.2 hPa NW 50.7 km/h 50.7 km/h 41 % 0 mm 5.0 W/m2 OVC
17:41 -10.4 °C -17.6 °C 34774.2 hPa NW 44.7 km/h 44.7 km/h 41 % 0 mm 0.0 W/m2 OVC
17:43 -10.4 °C -17.4 °C 34774.2 hPa West 56.6 km/h 56.6 km/h 42 % 0 mm 0.0 W/m2 OVC
17:48 -10.4 °C -17.4 °C 34774.2 hPa NW 44.7 km/h 44.7 km/h 42 % 0 mm 0.0 W/m2 OVC
17:50 -10.4 °C -17.4 °C 34774.2 hPa WNW 49.2 km/h 49.2 km/h 42 % 0 mm 0.0 W/m2 OVC
17:55 -10.4 °C -17.2 °C 34774.2 hPa WNW 44.1 km/h 44.1 km/h 43 % 0 mm 0.0 W/m2 CLR
17:57 -10.4 °C -17.2 °C 34774.2 hPa WNW 53.6 km/h 53.6 km/h 43 % 0 mm 0.0 W/m2 CLR
17:59 -10.4 °C -17.2 °C 34774.2 hPa WNW 50.7 km/h 50.7 km/h 43 % 0 mm 0.0 W/m2 CLR
18:03 -10.4 °C -17.1 °C 34774.2 hPa NW 50.7 km/h 50.7 km/h 44 % 0 mm 0.0 W/m2 CLR
18:08 -10.7 °C -17.3 °C 34774.2 hPa WNW 44.7 km/h 44.7 km/h 44 % 0 mm 0.0 W/m2 CLR
18:09 -10.7 °C -17.3 °C 34784.4 hPa WNW 44.7 km/h 44.7 km/h 44 % 0 mm 0.0 W/m2 CLR
18:13 -10.7 °C -17.3 °C 34784.4 hPa NW 38.8 km/h 38.8 km/h 44 % 0 mm 0.0 W/m2 CLR
18:16 -10.7 °C -17.2 °C 34784.4 hPa NW 38.8 km/h 38.8 km/h 45 % 0 mm 0.0 W/m2 CLR
18:19 -10.7 °C -17.2 °C 34784.4 hPa WNW 38.8 km/h 38.8 km/h 45 % 0 mm 0.0 W/m2 CLR
18:21 -10.7 °C -17.2 °C 34784.4 hPa NW 47.6 km/h 47.6 km/h 45 % 0 mm 0.0 W/m2 CLR
18:26 -10.7 °C -17.2 °C 34784.4 hPa WNW 33.6 km/h 33.6 km/h 45 % 0 mm 0.0 W/m2 CLR
18:31 -10.7 °C -17 °C 34784.4 hPa WNW 59.5 km/h 59.5 km/h 46 % 0 mm 0.0 W/m2 CLR
18:34 -10.7 °C -17 °C 34784.4 hPa WNW 50.7 km/h 50.7 km/h 46 % 0 mm 0.0 W/m2 CLR
18:37 -10.7 °C -17 °C 34784.4 hPa NW 53.6 km/h 53.6 km/h 46 % 0 mm 0.0 W/m2 CLR
18:39 -10.7 °C -17 °C 34784.4 hPa NW 53.6 km/h 53.6 km/h 46 % 0 mm 0.0 W/m2 CLR
18:42 -10.7 °C -17 °C 34784.4 hPa NW 38.8 km/h 38.8 km/h 46 % 0 mm 0.0 W/m2 CLR
18:45 -10.4 °C -16.6 °C 34784.4 hPa NW 71.5 km/h 71.5 km/h 47 % 0 mm 0.0 W/m2 CLR
18:50 -10.4 °C -16.7 °C 34784.4 hPa NW 56.6 km/h 56.6 km/h 46 % 0 mm 0.0 W/m2 CLR
18:54 -10.4 °C -16.7 °C 34784.4 hPa NW 57 km/h 57 km/h 46 % 0 mm 0.0 W/m2 CLR
18:58 -10.4 °C -16.7 °C 34784.4 hPa WNW 77.4 km/h 77.4 km/h 46 % 0 mm 0.0 W/m2 CLR
18:59 -10.4 °C -16.7 °C 34797.9 hPa WNW 59.5 km/h 59.5 km/h 46 % 0 mm 0.0 W/m2 CLR
19:04 -10.4 °C -16.7 °C 34797.9 hPa WNW 67.3 km/h 67.3 km/h 46 % 0 mm 0.0 W/m2 CLR
19:09 -10.4 °C -16.7 °C 34784.4 hPa West 57 km/h 57 km/h 46 % 0 mm 0.0 W/m2 CLR
19:14 -10.1 °C -16.4 °C 34784.4 hPa WNW 59.5 km/h 59.5 km/h 46 % 0 mm 0.0 W/m2 CLR
19:15 -10.1 °C -16.4 °C 34784.4 hPa NW 53.6 km/h 53.6 km/h 46 % 0 mm 0.0 W/m2 CLR
19:20 -10.1 °C -16.2 °C 34797.9 hPa WNW 36.2 km/h 36.2 km/h 47 % 0 mm 0.0 W/m2 CLR
19:21 -10.1 °C -16.2 °C 34784.4 hPa WNW 47.6 km/h 47.6 km/h 47 % 0 mm 0.0 W/m2 CLR
19:26 -10.4 °C -16.6 °C 34784.4 hPa WNW 50.7 km/h 50.7 km/h 47 % 0 mm 0.0 W/m2 CLR
19:30 -10.4 °C -16.6 °C 34797.9 hPa NW 47.6 km/h 47.6 km/h 47 % 0 mm 0.0 W/m2 CLR
19:32 -10.4 °C -16.6 °C 34797.9 hPa WNW 41.7 km/h 41.7 km/h 47 % 0 mm 0.0 W/m2 CLR
19:35 -10.1 °C -16.2 °C 34797.9 hPa WNW 50.7 km/h 50.7 km/h 47 % 0 mm 0.0 W/m2 CLR
19:40 -10.4 °C -16.6 °C 34797.9 hPa WNW 47.6 km/h 47.6 km/h 47 % 0 mm 0.0 W/m2 CLR
19:45 -10.4 °C -16.3 °C 34808.1 hPa NW 32.8 km/h 32.8 km/h 48 % 0 mm 0.0 W/m2 CLR
19:46 -10.4 °C -16.3 °C 34808.1 hPa WNW 44.7 km/h 44.7 km/h 48 % 0 mm 0.0 W/m2 CLR
19:50 -10.4 °C -16.3 °C 34808.1 hPa NW 56.6 km/h 56.6 km/h 48 % 0 mm 0.0 W/m2 CLR
19:52 -10.4 °C -16.3 °C 34808.1 hPa NW 50.7 km/h 50.7 km/h 48 % 0 mm 0.0 W/m2 CLR
19:57 -10.1 °C -16.1 °C 34808.1 hPa NW 33.6 km/h 33.6 km/h 48 % 0 mm 0.0 W/m2 CLR
20:02 -10.4 °C -16.3 °C 34808.1 hPa WNW 53.6 km/h 53.6 km/h 48 % 0 mm 0.0 W/m2 CLR
20:03 -10.4 °C -16.3 °C 34808.1 hPa WNW 47.6 km/h 47.6 km/h 48 % 0 mm 0.0 W/m2 CLR
20:07 -10.4 °C -16.3 °C 34808.1 hPa WNW 47.6 km/h 47.6 km/h 48 % 0 mm 0.0 W/m2 CLR
20:12 -10.4 °C -16.3 °C 34808.1 hPa WNW 44.7 km/h 44.7 km/h 48 % 0 mm 0.0 W/m2 CLR
20:17 -10.4 °C -16.2 °C 34808.1 hPa NW 53.6 km/h 53.6 km/h 49 % 0 mm 0.0 W/m2 CLR
20:18 -10.4 °C -16.2 °C 34818.2 hPa WNW 50.7 km/h 50.7 km/h 49 % 0 mm 0.0 W/m2 CLR
20:20 -10.4 °C -16.2 °C 34818.2 hPa NW 44.7 km/h 44.7 km/h 49 % 0 mm 0.0 W/m2 CLR
20:25 -10.4 °C -16.2 °C 34818.2 hPa WNW 59.5 km/h 59.5 km/h 49 % 0 mm 0.0 W/m2 CLR
20:26 -10.4 °C -16.2 °C 34808.1 hPa NW 59.5 km/h 59.5 km/h 49 % 0 mm 0.0 W/m2 CLR
20:28 -10.4 °C -16.2 °C 34818.2 hPa NW 35.7 km/h 35.7 km/h 49 % 0 mm 0.0 W/m2 CLR
20:33 -10.4 °C -16.1 °C 34818.2 hPa NW 54.4 km/h 54.4 km/h 50 % 0 mm 0.0 W/m2 CLR
20:34 -10.4 °C -16.1 °C 34818.2 hPa WNW 53.6 km/h 53.6 km/h 50 % 0 mm 0.0 W/m2 CLR
20:37 -10.4 °C -16.1 °C 34818.2 hPa WNW 50.7 km/h 50.7 km/h 50 % 0 mm 0.0 W/m2 CLR
20:39 -10.4 °C -16.1 °C 34818.2 hPa WNW 44.7 km/h 44.7 km/h 50 % 0 mm 0.0 W/m2 CLR
20:42 -10.4 °C -16.1 °C 34818.2 hPa NW 50.7 km/h 50.7 km/h 50 % 0 mm 0.0 W/m2 CLR
20:44 -10.4 °C -16.1 °C 34818.2 hPa WNW 50.7 km/h 50.7 km/h 50 % 0 mm 0.0 W/m2 CLR
20:49 -10.4 °C -16.1 °C 34818.2 hPa NW 47.6 km/h 47.6 km/h 50 % 0 mm 0.0 W/m2 CLR
20:51 -10.4 °C -16.1 °C 34818.2 hPa WNW 35.7 km/h 35.7 km/h 50 % 0 mm 0.0 W/m2 CLR
20:56 -10.4 °C -16.1 °C 34831.8 hPa NW 47.6 km/h 47.6 km/h 50 % 0 mm 0.0 W/m2 CLR
20:57 -10.4 °C -16.1 °C 34831.8 hPa NW 41.4 km/h 41.4 km/h 50 % 0 mm 0.0 W/m2 CLR
21:02 -10.4 °C -15.9 °C 34818.2 hPa WNW 38.8 km/h 38.8 km/h 51 % 0 mm 0.0 W/m2 CLR
21:06 -10.4 °C -15.9 °C 34831.8 hPa WNW 44.7 km/h 44.7 km/h 51 % 0 mm 0.0 W/m2 CLR
21:08 -10.4 °C -15.9 °C 34831.8 hPa West 32.8 km/h 32.8 km/h 51 % 0 mm 0.0 W/m2 CLR
21:12 -10.4 °C -15.9 °C 34831.8 hPa WNW 38.8 km/h 38.8 km/h 51 % 0 mm 0.0 W/m2 CLR
21:14 -10.4 °C -15.9 °C 34841.9 hPa WNW 32.8 km/h 32.8 km/h 51 % 0 mm 0.0 W/m2 CLR
21:19 -10.4 °C -15.9 °C 34841.9 hPa WNW 29.8 km/h 29.8 km/h 51 % 0 mm 0.0 W/m2 CLR
21:20 -10.4 °C -15.9 °C 34841.9 hPa NW 31.1 km/h 31.1 km/h 51 % 0 mm 0.0 W/m2 CLR
21:21 -10.4 °C -15.9 °C 34841.9 hPa NW 32.8 km/h 32.8 km/h 51 % 0 mm 0.0 W/m2 CLR
21:25 -10.4 °C -15.7 °C 34841.9 hPa West 50.7 km/h 50.7 km/h 52 % 0 mm 0.0 W/m2 CLR
21:26 -10.4 °C -15.7 °C 34841.9 hPa NW 35.7 km/h 35.7 km/h 52 % 0 mm 0.0 W/m2 CLR
21:31 -10.4 °C -15.6 °C 34841.9 hPa NW 44.7 km/h 44.7 km/h 53 % 0 mm 0.0 W/m2 CLR
21:33 -10.4 °C -15.7 °C 34841.9 hPa NW 44.7 km/h 44.7 km/h 52 % 0 mm 0.0 W/m2 CLR
21:38 -10.4 °C -15.6 °C 34852.1 hPa NW 38.8 km/h 38.8 km/h 53 % 0 mm 0.0 W/m2 CLR
21:39 -10.4 °C -15.6 °C 34852.1 hPa NW 47.6 km/h 47.6 km/h 53 % 0 mm 0.0 W/m2 CLR
21:40 -10.4 °C -15.4 °C 34852.1 hPa NW 50.7 km/h 50.7 km/h 54 % 0 mm 0.0 W/m2 CLR
21:45 -10.4 °C -15.4 °C 34852.1 hPa NNW 44.1 km/h 44.1 km/h 54 % 0 mm 0.0 W/m2 CLR
21:50 -10.4 °C -15.4 °C 34852.1 hPa NW 46.7 km/h 46.7 km/h 54 % 0 mm 0.0 W/m2 CLR
21:52 -10.4 °C -15.4 °C 34852.1 hPa NW 50.7 km/h 50.7 km/h 54 % 0 mm 0.0 W/m2 CLR
21:54 -10.4 °C -15.4 °C 34852.1 hPa NW 38.8 km/h 38.8 km/h 54 % 0 mm 0.0 W/m2 CLR
21:59 -10.4 °C -15.3 °C 34841.9 hPa NW 50.7 km/h 50.7 km/h 55 % 0 mm 0.0 W/m2 CLR
22:00 -10.4 °C -15.3 °C 34841.9 hPa NW 53.6 km/h 53.6 km/h 55 % 0 mm 0.0 W/m2 CLR
22:05 -10.4 °C -15.3 °C 34841.9 hPa NW 53.6 km/h 53.6 km/h 55 % 0 mm 0.0 W/m2 CLR
22:08 -10.4 °C -15.3 °C 34841.9 hPa NW 53.6 km/h 53.6 km/h 55 % 0 mm 0.0 W/m2 CLR
22:13 -10.4 °C -15.2 °C 34841.9 hPa WNW 54.4 km/h 54.4 km/h 56 % 0 mm 0.0 W/m2 CLR
22:14 -10.4 °C -15.2 °C 34841.9 hPa NW 68.6 km/h 68.6 km/h 56 % 0 mm 0.0 W/m2 CLR
22:17 -10.4 °C -15.2 °C 34852.1 hPa NNW 56.6 km/h 56.6 km/h 56 % 0 mm 0.0 W/m2 CLR
22:22 -10.4 °C -15.2 °C 34852.1 hPa WNW 44.1 km/h 44.1 km/h 56 % 0 mm 0.0 W/m2 CLR
22:24 -10.4 °C -15.2 °C 34852.1 hPa NW 44.7 km/h 44.7 km/h 56 % 0 mm 0.0 W/m2 CLR
22:29 -10.7 °C -15.4 °C 34852.1 hPa NW 59.5 km/h 59.5 km/h 56 % 0 mm 0.0 W/m2 CLR
22:32 -10.7 °C -15.4 °C 34841.9 hPa NW 38.8 km/h 38.8 km/h 56 % 0 mm 0.0 W/m2 CLR
22:33 -10.7 °C -15.4 °C 34841.9 hPa WNW 36.2 km/h 36.2 km/h 56 % 0 mm 0.0 W/m2 CLR
22:38 -10.7 °C -15.4 °C 34852.1 hPa NW 49.2 km/h 49.2 km/h 56 % 0 mm 0.0 W/m2 CLR
22:39 -10.7 °C -15.4 °C 34852.1 hPa NW 50.7 km/h 50.7 km/h 56 % 0 mm 0.0 W/m2 CLR
22:44 -10.7 °C -15.4 °C 34852.1 hPa NW 50.7 km/h 50.7 km/h 56 % 0 mm 0.0 W/m2 CLR
22:45 -10.7 °C -15.4 °C 34841.9 hPa NW 50.7 km/h 50.7 km/h 56 % 0 mm 0.0 W/m2 CLR
22:47 -10.7 °C -15.4 °C 34841.9 hPa NW 50.7 km/h 50.7 km/h 56 % 0 mm 0.0 W/m2 CLR
22:52 -10.4 °C -15.2 °C 34852.1 hPa NW 54.4 km/h 54.4 km/h 56 % 0 mm 0.0 W/m2 CLR
22:54 -10.4 °C -15.2 °C 34852.1 hPa NW 47.6 km/h 47.6 km/h 56 % 0 mm 0.0 W/m2 CLR
22:57 -10.4 °C -15 °C 34852.1 hPa NW 41.7 km/h 41.7 km/h 57 % 0 mm 0.0 W/m2 CLR
23:01 -10.4 °C -15 °C 34852.1 hPa NW 44.1 km/h 44.1 km/h 57 % 0 mm 0.0 W/m2 CLR
23:03 -10.4 °C -15 °C 34852.1 hPa NW 41.7 km/h 41.7 km/h 57 % 0 mm 0.0 W/m2 CLR
23:08 -10.7 °C -15.2 °C 34865.6 hPa NNW 47.6 km/h 47.6 km/h 58 % 0 mm 0.0 W/m2 CLR
23:13 -10.7 °C -14.9 °C 34875.8 hPa NNW 41.7 km/h 41.7 km/h 60 % 0 mm 0.0 W/m2 CLR
23:14 -10.7 °C -14.9 °C 34865.6 hPa NW 44.7 km/h 44.7 km/h 60 % 0 mm 0.0 W/m2 CLR
23:15 -10.7 °C -14.9 °C 34875.8 hPa NW 44.7 km/h 44.7 km/h 60 % 0 mm 0.0 W/m2 CLR
23:20 -10.7 °C -14.5 °C 34875.8 hPa NNW 50.7 km/h 50.7 km/h 63 % 0 mm 0.0 W/m2 CLR
23:21 -10.7 °C -14.4 °C 34875.8 hPa NW 38.8 km/h 38.8 km/h 64 % 0 mm 0.0 W/m2 CLR
23:26 -11 °C -14.6 °C 34875.8 hPa North 29.8 km/h 29.8 km/h 65 % 0 mm 0.0 W/m2 CLR
23:31 -11.3 °C -14.8 °C 34875.8 hPa NNW 32.8 km/h 32.8 km/h 65 % 0 mm 0.0 W/m2 CLR
23:32 -11.3 °C -14.8 °C 34875.8 hPa NNW 29.8 km/h 29.8 km/h 65 % 0 mm 0.0 W/m2 CLR
23:33 -11.3 °C -14.8 °C 34875.8 hPa NNW 29.8 km/h 29.8 km/h 65 % 0 mm 0.0 W/m2 CLR
23:37 -11.3 °C -14.8 °C 34875.8 hPa NW 29.8 km/h 29.8 km/h 65 % 0 mm 0.0 W/m2 CLR
23:39 -11.3 °C -14.8 °C 34875.8 hPa NNW 26.9 km/h 26.9 km/h 65 % 0 mm 0.0 W/m2 CLR
23:44 -11.6 °C -15.1 °C 34875.8 hPa NNW 29.8 km/h 29.8 km/h 65 % 0 mm 0.0 W/m2 CLR
23:46 -11.6 °C -15.1 °C 34875.8 hPa NNW 29.8 km/h 29.8 km/h 65 % 0 mm 0.0 W/m2 CLR
23:51 -11.6 °C -15 °C 34875.8 hPa North 29.8 km/h 29.8 km/h 66 % 0 mm 0.0 W/m2 CLR
23:53 -11.6 °C -15 °C 34875.8 hPa NNW 26.9 km/h 26.9 km/h 66 % 0 mm 0.0 W/m2 CLR
23:58 -11.6 °C -15 °C 34875.8 hPa North 29.8 km/h 29.8 km/h 66 % 0 mm 0.0 W/m2 CLR
Lo Temps de Massalio
Compliments of Weather Underground - 1.75 mb